sensor_id;sensor_type;location;lat;lon;timestamp;pressure;altitude;pressure_sealevel;temperature;humidity
42385;BME280;28042;43.986;22.860;2023-03-15T00:00:43;100117.59;;;5.22;90.24
42385;BME280;28042;43.986;22.860;2023-03-15T00:03:10;100157.94;;;5.32;90.86
42385;BME280;28042;43.986;22.860;2023-03-15T00:05:36;100083.94;;;4.94;90.55
42385;BME280;28042;43.986;22.860;2023-03-15T00:08:05;100153.66;;;5.37;90.69
42385;BME280;28042;43.986;22.860;2023-03-15T00:10:31;100095.41;;;5.04;90.19
42385;BME280;28042;43.986;22.860;2023-03-15T00:12:56;100126.19;;;5.26;91.10
42385;BME280;28042;43.986;22.860;2023-03-15T00:15:22;100154.34;;;5.39;90.53
42385;BME280;28042;43.986;22.860;2023-03-15T00:17:47;100140.50;;;5.34;90.41
42385;BME280;28042;43.986;22.860;2023-03-15T00:20:13;100136.47;;;5.30;90.50
42385;BME280;28042;43.986;22.860;2023-03-15T00:22:40;100084.91;;;5.01;90.69
42385;BME280;28042;43.986;22.860;2023-03-15T00:25:06;100080.22;;;4.95;90.48
42385;BME280;28042;43.986;22.860;2023-03-15T00:27:31;100144.22;;;5.33;89.95
42385;BME280;28042;43.986;22.860;2023-03-15T00:29:57;100140.13;;;5.37;89.99
42385;BME280;28042;43.986;22.860;2023-03-15T00:32:23;100066.78;;;4.87;90.17
42385;BME280;28042;43.986;22.860;2023-03-15T00:34:48;100106.72;;;4.99;90.83
42385;BME280;28042;43.986;22.860;2023-03-15T00:37:16;100119.03;;;5.02;91.01
42385;BME280;28042;43.986;22.860;2023-03-15T00:39:47;100120.00;;;5.09;91.58
42385;BME280;28042;43.986;22.860;2023-03-15T00:42:13;100122.44;;;5.04;91.14
42385;BME280;28042;43.986;22.860;2023-03-15T00:44:43;100117.34;;;5.01;91.00
42385;BME280;28042;43.986;22.860;2023-03-15T00:47:13;100121.22;;;5.06;90.47
42385;BME280;28042;43.986;22.860;2023-03-15T00:49:39;100120.00;;;5.09;90.67
42385;BME280;28042;43.986;22.860;2023-03-15T00:52:06;100106.22;;;5.04;90.25
42385;BME280;28042;43.986;22.860;2023-03-15T00:54:32;100065.41;;;4.82;90.04
42385;BME280;28042;43.986;22.860;2023-03-15T00:57:01;100110.22;;;5.08;90.16
42385;BME280;28042;43.986;22.860;2023-03-15T00:59:29;100116.66;;;5.07;89.93
42385;BME280;28042;43.986;22.860;2023-03-15T01:02:00;100102.84;;;4.94;90.12
42385;BME280;28042;43.986;22.860;2023-03-15T01:04:25;100063.16;;;4.63;90.68
42385;BME280;28042;43.986;22.860;2023-03-15T01:06:51;100111.31;;;4.91;91.27
42385;BME280;28042;43.986;22.860;2023-03-15T01:09:16;100106.28;;;4.88;91.84
42385;BME280;28042;43.986;22.860;2023-03-15T01:11:42;100093.28;;;4.83;92.36
42385;BME280;28042;43.986;22.860;2023-03-15T01:14:08;100107.31;;;4.87;92.60
42385;BME280;28042;43.986;22.860;2023-03-15T01:16:34;100092.09;;;4.86;92.61
42385;BME280;28042;43.986;22.860;2023-03-15T01:19:00;100045.63;;;4.51;91.98
42385;BME280;28042;43.986;22.860;2023-03-15T01:21:25;100104.28;;;4.81;92.57
42385;BME280;28042;43.986;22.860;2023-03-15T01:23:52;100111.78;;;4.63;93.63
42385;BME280;28042;43.986;22.860;2023-03-15T01:26:19;100050.41;;;4.33;94.12
42385;BME280;28042;43.986;22.860;2023-03-15T01:28:44;100098.28;;;4.63;94.32
42385;BME280;28042;43.986;22.860;2023-03-15T01:31:19;100097.91;;;4.66;93.50
42385;BME280;28042;43.986;22.860;2023-03-15T01:33:45;100024.81;;;4.29;93.52
42385;BME280;28042;43.986;22.860;2023-03-15T01:36:11;100045.81;;;4.49;92.60
42385;BME280;28042;43.986;22.860;2023-03-15T01:38:36;100096.69;;;4.77;91.81
42385;BME280;28042;43.986;22.860;2023-03-15T01:41:02;100093.84;;;4.70;90.97
42385;BME280;28042;43.986;22.860;2023-03-15T01:43:29;100089.16;;;4.64;90.73
42385;BME280;28042;43.986;22.860;2023-03-15T01:48:54;100093.25;;;4.52;92.02
42385;BME280;28042;43.986;22.860;2023-03-15T01:51:25;100078.44;;;4.32;93.67
42385;BME280;28042;43.986;22.860;2023-03-15T01:54:14;100082.81;;;4.41;93.99
42385;BME280;28042;43.986;22.860;2023-03-15T01:56:45;100039.84;;;4.15;93.83
42385;BME280;28042;43.986;22.860;2023-03-15T01:59:21;100089.56;;;4.37;93.90
42385;BME280;28042;43.986;22.860;2023-03-15T02:01:48;100090.59;;;4.36;93.31
42385;BME280;28042;43.986;22.860;2023-03-15T02:04:20;100002.66;;;3.78;94.16
42385;BME280;28042;43.986;22.860;2023-03-15T02:06:50;100081.00;;;4.17;94.41
42385;BME280;28042;43.986;22.860;2023-03-15T02:09:27;100090.91;;;4.33;94.65
42385;BME280;28042;43.986;22.860;2023-03-15T02:11:54;100085.25;;;4.11;95.52
42385;BME280;28042;43.986;22.860;2023-03-15T02:14:21;100082.53;;;4.11;95.25
42385;BME280;28042;43.986;22.860;2023-03-15T02:16:47;100031.50;;;3.69;95.94
42385;BME280;28042;43.986;22.860;2023-03-15T02:19:41;100022.75;;;3.59;96.50
42385;BME280;28042;43.986;22.860;2023-03-15T02:22:40;100100.78;;;4.09;95.97
42385;BME280;28042;43.986;22.860;2023-03-15T02:27:51;100062.34;;;3.66;97.67
42385;BME280;28042;43.986;22.860;2023-03-15T02:30:17;100084.06;;;3.73;98.60
42385;BME280;28042;43.986;22.860;2023-03-15T02:32:43;100067.41;;;3.69;98.57
42385;BME280;28042;43.986;22.860;2023-03-15T02:35:09;100097.56;;;3.81;98.18
42385;BME280;28042;43.986;22.860;2023-03-15T02:37:35;100082.56;;;3.79;98.43
42385;BME280;28042;43.986;22.860;2023-03-15T02:40:00;100075.66;;;3.68;98.06
42385;BME280;28042;43.986;22.860;2023-03-15T02:42:26;100014.00;;;3.24;98.61
42385;BME280;28042;43.986;22.860;2023-03-15T02:44:52;100022.75;;;3.26;99.00
42385;BME280;28042;43.986;22.860;2023-03-15T02:47:22;100076.16;;;3.55;99.31
42385;BME280;28042;43.986;22.860;2023-03-15T02:49:50;100074.81;;;3.67;99.63
42385;BME280;28042;43.986;22.860;2023-03-15T02:52:16;100009.09;;;3.28;99.29
42385;BME280;28042;43.986;22.860;2023-03-15T02:54:41;99998.66;;;3.17;100.00
42385;BME280;28042;43.986;22.860;2023-03-15T02:57:12;100076.16;;;3.63;100.00
42385;BME280;28042;43.986;22.860;2023-03-15T02:59:37;100008.06;;;3.21;100.00
42385;BME280;28042;43.986;22.860;2023-03-15T03:02:04;100052.22;;;3.28;100.00
42385;BME280;28042;43.986;22.860;2023-03-15T03:04:30;100077.88;;;3.48;100.00
42385;BME280;28042;43.986;22.860;2023-03-15T03:06:55;100057.97;;;3.41;100.00
42385;BME280;28042;43.986;22.860;2023-03-15T03:09:22;100036.03;;;3.28;100.00
42385;BME280;28042;43.986;22.860;2023-03-15T03:11:48;100094.03;;;3.48;100.00
42385;BME280;28042;43.986;22.860;2023-03-15T03:14:13;100026.44;;;3.09;100.00
42385;BME280;28042;43.986;22.860;2023-03-15T03:16:39;100077.66;;;3.33;100.00
42385;BME280;28042;43.986;22.860;2023-03-15T03:19:05;100072.75;;;3.21;100.00
42385;BME280;28042;43.986;22.860;2023-03-15T03:21:31;100034.66;;;2.91;100.00
42385;BME280;28042;43.986;22.860;2023-03-15T03:23:56;100013.06;;;2.75;100.00
42385;BME280;28042;43.986;22.860;2023-03-15T03:26:22;100012.72;;;2.78;100.00
42385;BME280;28042;43.986;22.860;2023-03-15T03:28:53;100077.28;;;3.12;100.00
42385;BME280;28042;43.986;22.860;2023-03-15T03:31:25;100105.78;;;3.15;100.00
42385;BME280;28042;43.986;22.860;2023-03-15T03:33:51;100029.22;;;2.75;100.00
42385;BME280;28042;43.986;22.860;2023-03-15T03:36:17;100083.00;;;3.09;100.00
42385;BME280;28042;43.986;22.860;2023-03-15T03:38:44;100021.97;;;2.75;100.00
42385;BME280;28042;43.986;22.860;2023-03-15T03:41:11;100082.81;;;3.02;100.00
42385;BME280;28042;43.986;22.860;2023-03-15T03:43:37;100081.50;;;3.06;100.00
42385;BME280;28042;43.986;22.860;2023-03-15T03:46:03;100009.34;;;2.68;100.00
42385;BME280;28042;43.986;22.860;2023-03-15T03:48:29;100078.81;;;3.06;100.00
42385;BME280;28042;43.986;22.860;2023-03-15T03:50:56;100069.69;;;2.99;100.00
42385;BME280;28042;43.986;22.860;2023-03-15T03:53:22;100010.69;;;2.64;100.00
42385;BME280;28042;43.986;22.860;2023-03-15T03:55:47;100059.56;;;2.93;100.00
42385;BME280;28042;43.986;22.860;2023-03-15T03:58:13;99997.38;;;2.62;100.00
42385;BME280;28042;43.986;22.860;2023-03-15T04:00:39;100052.53;;;3.08;100.00
42385;BME280;28042;43.986;22.860;2023-03-15T04:03:06;100055.56;;;3.05;100.00
42385;BME280;28042;43.986;22.860;2023-03-15T04:05:31;99998.59;;;2.76;100.00
42385;BME280;28042;43.986;22.860;2023-03-15T04:07:57;100052.19;;;3.11;100.00
42385;BME280;28042;43.986;22.860;2023-03-15T04:10:22;100050.19;;;3.14;100.00
42385;BME280;28042;43.986;22.860;2023-03-15T04:12:52;100057.59;;;3.28;100.00
42385;BME280;28042;43.986;22.860;2023-03-15T04:15:18;100058.16;;;3.48;100.00
42385;BME280;28042;43.986;22.860;2023-03-15T04:17:44;100041.81;;;3.49;100.00
42385;BME280;28042;43.986;22.860;2023-03-15T04:20:10;99968.34;;;3.23;100.00
42385;BME280;28042;43.986;22.860;2023-03-15T04:22:37;99976.25;;;3.32;100.00
42385;BME280;28042;43.986;22.860;2023-03-15T04:25:03;100051.56;;;3.75;100.00
42385;BME280;28042;43.986;22.860;2023-03-15T04:27:29;100001.69;;;3.46;100.00
42385;BME280;28042;43.986;22.860;2023-03-15T04:29:54;100021.91;;;3.75;100.00
42385;BME280;28042;43.986;22.860;2023-03-15T04:32:20;100036.72;;;3.87;100.00
42385;BME280;28042;43.986;22.860;2023-03-15T04:34:45;99972.38;;;3.51;98.02
42385;BME280;28042;43.986;22.860;2023-03-15T04:37:16;99946.09;;;3.29;96.38
42385;BME280;28042;43.986;22.860;2023-03-15T04:39:42;100008.75;;;3.63;96.95
42385;BME280;28042;43.986;22.860;2023-03-15T04:42:07;100013.47;;;3.69;97.74
42385;BME280;28042;43.986;22.860;2023-03-15T04:44:33;99971.03;;;3.39;97.31
42385;BME280;28042;43.986;22.860;2023-03-15T04:46:58;99992.25;;;3.66;96.54
42385;BME280;28042;43.986;22.860;2023-03-15T04:49:24;99982.94;;;3.77;95.31
42385;BME280;28042;43.986;22.860;2023-03-15T04:51:49;99987.13;;;3.88;94.67
42385;BME280;28042;43.986;22.860;2023-03-15T04:54:15;99985.44;;;3.95;95.27
42385;BME280;28042;43.986;22.860;2023-03-15T04:56:40;100017.78;;;4.11;95.17
42385;BME280;28042;43.986;22.860;2023-03-15T04:59:06;99946.34;;;3.83;94.91
42385;BME280;28042;43.986;22.860;2023-03-15T05:01:32;99953.41;;;3.92;94.43
42385;BME280;28042;43.986;22.860;2023-03-15T05:03:57;100027.81;;;4.34;94.79
42385;BME280;28042;43.986;22.860;2023-03-15T05:06:23;99937.19;;;4.00;93.91
42385;BME280;28042;43.986;22.860;2023-03-15T05:08:49;99950.63;;;4.08;94.63
42385;BME280;28042;43.986;22.860;2023-03-15T05:11:15;99992.38;;;4.37;94.82
42385;BME280;28042;43.986;22.860;2023-03-15T05:13:41;100034.44;;;4.70;94.35
42385;BME280;28042;43.986;22.860;2023-03-15T05:16:06;100021.13;;;4.61;94.44
42385;BME280;28042;43.986;22.860;2023-03-15T05:18:32;99998.28;;;4.32;97.48
42385;BME280;28042;43.986;22.860;2023-03-15T05:20:57;100002.16;;;4.38;99.51
42385;BME280;28042;43.986;22.860;2023-03-15T05:23:23;99962.22;;;4.17;99.06
42385;BME280;28042;43.986;22.860;2023-03-15T05:25:54;99963.69;;;4.36;99.10
42385;BME280;28042;43.986;22.860;2023-03-15T05:28:21;99937.44;;;4.21;98.88
42385;BME280;28042;43.986;22.860;2023-03-15T05:30:48;99933.78;;;4.06;98.40
42385;BME280;28042;43.986;22.860;2023-03-15T05:33:14;100020.44;;;4.59;99.47
42385;BME280;28042;43.986;22.860;2023-03-15T05:35:41;100013.94;;;4.45;98.56
42385;BME280;28042;43.986;22.860;2023-03-15T05:38:08;100033.88;;;4.44;97.08
42385;BME280;28042;43.986;22.860;2023-03-15T05:40:34;100017.34;;;4.39;97.29
42385;BME280;28042;43.986;22.860;2023-03-15T05:43:01;99984.97;;;4.31;96.72
42385;BME280;28042;43.986;22.860;2023-03-15T05:45:26;100029.97;;;4.77;93.99
42385;BME280;28042;43.986;22.860;2023-03-15T05:47:52;100023.41;;;4.80;92.28
42385;BME280;28042;43.986;22.860;2023-03-15T05:50:17;99959.22;;;4.51;91.79
42385;BME280;28042;43.986;22.860;2023-03-15T05:52:43;99953.09;;;4.57;92.19
42385;BME280;28042;43.986;22.860;2023-03-15T05:55:08;99945.28;;;4.70;90.91
42385;BME280;28042;43.986;22.860;2023-03-15T05:57:34;100019.94;;;5.17;89.82
42385;BME280;28042;43.986;22.860;2023-03-15T05:59:59;99953.00;;;4.73;88.35
42385;BME280;28042;43.986;22.860;2023-03-15T06:02:25;99950.53;;;4.64;88.81
42385;BME280;28042;43.986;22.860;2023-03-15T06:04:50;100000.47;;;4.99;88.99
42385;BME280;28042;43.986;22.860;2023-03-15T06:07:16;99931.94;;;4.92;87.08
42385;BME280;28042;43.986;22.860;2023-03-15T06:09:41;100012.81;;;5.62;85.32
42385;BME280;28042;43.986;22.860;2023-03-15T06:12:06;100007.38;;;5.85;84.44
42385;BME280;28042;43.986;22.860;2023-03-15T06:14:32;100004.72;;;6.00;83.63
42385;BME280;28042;43.986;22.860;2023-03-15T06:16:57;100002.78;;;6.08;81.33
42385;BME280;28042;43.986;22.860;2023-03-15T06:19:23;99942.22;;;5.72;81.08
42385;BME280;28042;43.986;22.860;2023-03-15T06:21:49;100007.44;;;6.29;78.51
42385;BME280;28042;43.986;22.860;2023-03-15T06:24:15;99994.78;;;6.51;78.07
42385;BME280;28042;43.986;22.860;2023-03-15T06:26:41;99919.72;;;6.30;75.83
42385;BME280;28042;43.986;22.860;2023-03-15T06:29:06;99944.34;;;6.50;75.43
42385;BME280;28042;43.986;22.860;2023-03-15T06:31:32;100021.16;;;6.93;74.63
42385;BME280;28042;43.986;22.860;2023-03-15T06:33:57;99951.75;;;6.77;74.01
42385;BME280;28042;43.986;22.860;2023-03-15T06:36:23;99973.16;;;7.08;71.72
42385;BME280;28042;43.986;22.860;2023-03-15T06:38:49;99983.00;;;7.37;70.09
42385;BME280;28042;43.986;22.860;2023-03-15T06:41:18;99994.44;;;7.54;69.60
42385;BME280;28042;43.986;22.860;2023-03-15T06:43:44;99945.06;;;7.65;67.91
42385;BME280;28042;43.986;22.860;2023-03-15T06:46:09;100009.56;;;8.19;65.48
42385;BME280;28042;43.986;22.860;2023-03-15T06:48:34;99967.72;;;8.14;61.70
42385;BME280;28042;43.986;22.860;2023-03-15T06:51:00;100006.34;;;8.37;61.67
42385;BME280;28042;43.986;22.860;2023-03-15T06:53:26;99952.34;;;8.28;60.83
42385;BME280;28042;43.986;22.860;2023-03-15T06:55:51;100011.50;;;8.60;56.83
42385;BME280;28042;43.986;22.860;2023-03-15T06:58:17;99975.91;;;8.20;55.20
42385;BME280;28042;43.986;22.860;2023-03-15T07:00:42;100036.59;;;8.62;55.32
42385;BME280;28042;43.986;22.860;2023-03-15T07:03:08;100039.59;;;8.81;55.45
42385;BME280;28042;43.986;22.860;2023-03-15T07:05:34;99991.91;;;8.78;54.73
42385;BME280;28042;43.986;22.860;2023-03-15T07:08:00;99967.75;;;8.20;54.49
42385;BME280;28042;43.986;22.860;2023-03-15T07:10:25;99980.91;;;7.82;55.22
42385;BME280;28042;43.986;22.860;2023-03-15T07:12:51;99964.25;;;7.92;54.59
42385;BME280;28042;43.986;22.860;2023-03-15T07:15:16;99982.41;;;8.19;54.88
42385;BME280;28042;43.986;22.860;2023-03-15T07:17:42;100019.81;;;8.52;54.71
42385;BME280;28042;43.986;22.860;2023-03-15T07:20:08;100003.50;;;8.52;53.09
42385;BME280;28042;43.986;22.860;2023-03-15T07:22:34;99994.31;;;8.53;52.63
42385;BME280;28042;43.986;22.860;2023-03-15T07:24:59;100011.13;;;8.70;53.45
42385;BME280;28042;43.986;22.860;2023-03-15T07:27:25;99966.22;;;8.39;52.34
42385;BME280;28042;43.986;22.860;2023-03-15T07:29:50;99967.13;;;8.53;51.72
42385;BME280;28042;43.986;22.860;2023-03-15T07:32:16;100026.78;;;9.22;51.42
42385;BME280;28042;43.986;22.860;2023-03-15T07:34:41;99971.00;;;8.92;51.24
42385;BME280;28042;43.986;22.860;2023-03-15T07:37:08;99978.38;;;9.04;51.24
42385;BME280;28042;43.986;22.860;2023-03-15T07:39:34;99977.25;;;8.86;52.12
42385;BME280;28042;43.986;22.860;2023-03-15T07:42:00;100032.94;;;8.90;53.66
42385;BME280;28042;43.986;22.860;2023-03-15T07:44:25;100021.25;;;8.96;52.98
42385;BME280;28042;43.986;22.860;2023-03-15T07:46:51;100041.63;;;8.65;54.25
42385;BME280;28042;43.986;22.860;2023-03-15T07:49:17;100018.63;;;8.68;54.95
42385;BME280;28042;43.986;22.860;2023-03-15T07:51:42;100028.75;;;8.94;54.29
42385;BME280;28042;43.986;22.860;2023-03-15T07:54:08;100029.69;;;9.27;53.43
42385;BME280;28042;43.986;22.860;2023-03-15T07:56:34;100002.88;;;9.11;53.01
42385;BME280;28042;43.986;22.860;2023-03-15T07:58:59;99966.47;;;8.51;53.90
42385;BME280;28042;43.986;22.860;2023-03-15T08:01:25;100036.38;;;9.18;54.29
42385;BME280;28042;43.986;22.860;2023-03-15T08:03:50;100012.69;;;8.99;53.39
42385;BME280;28042;43.986;22.860;2023-03-15T08:06:16;100013.72;;;8.98;53.96
42385;BME280;28042;43.986;22.860;2023-03-15T08:08:41;100016.63;;;8.90;54.63
42385;BME280;28042;43.986;22.860;2023-03-15T08:11:07;100023.75;;;8.91;54.05
42385;BME280;28042;43.986;22.860;2023-03-15T08:13:32;100039.63;;;8.94;54.47
42385;BME280;28042;43.986;22.860;2023-03-15T08:15:58;100032.97;;;9.03;54.62
42385;BME280;28042;43.986;22.860;2023-03-15T08:18:24;100044.28;;;9.00;53.82
42385;BME280;28042;43.986;22.860;2023-03-15T08:20:53;100033.81;;;8.97;53.75
42385;BME280;28042;43.986;22.860;2023-03-15T08:23:18;100037.22;;;9.12;54.21
42385;BME280;28042;43.986;22.860;2023-03-15T08:25:44;100046.84;;;9.15;54.23
42385;BME280;28042;43.986;22.860;2023-03-15T08:28:10;99997.22;;;9.06;53.80
42385;BME280;28042;43.986;22.860;2023-03-15T08:30:36;99971.81;;;8.86;53.92
42385;BME280;28042;43.986;22.860;2023-03-15T08:33:01;99965.50;;;8.65;55.06
42385;BME280;28042;43.986;22.860;2023-03-15T08:35:28;99966.72;;;8.56;54.21
42385;BME280;28042;43.986;22.860;2023-03-15T08:37:53;99968.84;;;8.67;54.41
42385;BME280;28042;43.986;22.860;2023-03-15T08:40:20;99992.28;;;8.75;54.17
42385;BME280;28042;43.986;22.860;2023-03-15T08:42:48;99976.53;;;8.57;54.41
42385;BME280;28042;43.986;22.860;2023-03-15T08:45:14;99957.38;;;8.31;55.62
42385;BME280;28042;43.986;22.860;2023-03-15T08:47:40;99986.00;;;8.68;54.66
42385;BME280;28042;43.986;22.860;2023-03-15T08:50:13;100037.25;;;9.25;53.83
42385;BME280;28042;43.986;22.860;2023-03-15T08:52:40;100026.78;;;9.35;53.74
42385;BME280;28042;43.986;22.860;2023-03-15T08:55:06;99979.59;;;8.89;53.18
42385;BME280;28042;43.986;22.860;2023-03-15T08:57:32;100003.13;;;9.23;53.29
42385;BME280;28042;43.986;22.860;2023-03-15T08:59:59;100012.38;;;9.42;52.82
42385;BME280;28042;43.986;22.860;2023-03-15T09:02:27;100001.47;;;9.35;52.92
42385;BME280;28042;43.986;22.860;2023-03-15T09:04:53;100021.78;;;9.46;53.91
42385;BME280;28042;43.986;22.860;2023-03-15T09:07:18;99962.50;;;9.28;53.30
42385;BME280;28042;43.986;22.860;2023-03-15T09:09:45;99947.63;;;9.04;53.90
42385;BME280;28042;43.986;22.860;2023-03-15T09:12:15;99945.94;;;9.03;54.50
42385;BME280;28042;43.986;22.860;2023-03-15T09:14:42;100011.88;;;9.05;56.00
42385;BME280;28042;43.986;22.860;2023-03-15T09:17:08;99965.56;;;8.78;55.75
42385;BME280;28042;43.986;22.860;2023-03-15T09:19:33;100012.72;;;9.12;56.44
42385;BME280;28042;43.986;22.860;2023-03-15T09:21:59;99953.75;;;8.58;58.02
42385;BME280;28042;43.986;22.860;2023-03-15T09:24:24;100020.41;;;9.02;57.72
42385;BME280;28042;43.986;22.860;2023-03-15T09:26:50;99979.81;;;8.94;56.80
42385;BME280;28042;43.986;22.860;2023-03-15T09:29:15;99986.47;;;8.85;56.79
42385;BME280;28042;43.986;22.860;2023-03-15T09:31:40;99978.97;;;8.87;56.87
42385;BME280;28042;43.986;22.860;2023-03-15T09:34:06;99945.31;;;9.07;55.67
42385;BME280;28042;43.986;22.860;2023-03-15T09:36:32;100035.63;;;9.77;54.60
42385;BME280;28042;43.986;22.860;2023-03-15T09:38:59;100027.69;;;9.82;54.62
42385;BME280;28042;43.986;22.860;2023-03-15T09:41:33;100021.78;;;9.99;54.25
42385;BME280;28042;43.986;22.860;2023-03-15T09:47:39;100014.88;;;9.70;55.02
42385;BME280;28042;43.986;22.860;2023-03-15T09:50:25;100007.78;;;9.49;55.67
42385;BME280;28042;43.986;22.860;2023-03-15T09:55:24;99972.31;;;9.09;57.02
42385;BME280;28042;43.986;22.860;2023-03-15T09:58:03;100031.16;;;9.23;57.21
42385;BME280;28042;43.986;22.860;2023-03-15T10:00:59;99957.97;;;8.61;57.34
42385;BME280;28042;43.986;22.860;2023-03-15T10:03:47;99964.72;;;8.85;57.94
42385;BME280;28042;43.986;22.860;2023-03-15T10:06:22;99967.22;;;8.80;57.63
42385;BME280;28042;43.986;22.860;2023-03-15T10:09:27;100032.22;;;9.22;57.35
42385;BME280;28042;43.986;22.860;2023-03-15T10:12:04;100023.00;;;9.23;57.21
42385;BME280;28042;43.986;22.860;2023-03-15T10:17:51;100023.06;;;9.56;56.67
42385;BME280;28042;43.986;22.860;2023-03-15T10:20:36;99992.25;;;9.96;55.38
42385;BME280;28042;43.986;22.860;2023-03-15T10:23:21;99976.78;;;9.83;54.90
42385;BME280;28042;43.986;22.860;2023-03-15T10:25:49;99985.78;;;9.83;55.46
42385;BME280;28042;43.986;22.860;2023-03-15T10:28:28;100001.69;;;10.26;54.32
42385;BME280;28042;43.986;22.860;2023-03-15T10:30:58;99972.31;;;10.35;52.95
42385;BME280;28042;43.986;22.860;2023-03-15T10:33:35;99998.91;;;10.39;52.32
42385;BME280;28042;43.986;22.860;2023-03-15T10:36:13;99958.09;;;10.00;52.31
42385;BME280;28042;43.986;22.860;2023-03-15T10:38:39;100014.66;;;10.11;52.44
42385;BME280;28042;43.986;22.860;2023-03-15T10:41:06;100018.03;;;10.26;52.53
42385;BME280;28042;43.986;22.860;2023-03-15T10:43:34;100019.22;;;10.57;51.83
42385;BME280;28042;43.986;22.860;2023-03-15T10:46:21;99997.84;;;10.40;51.06
42385;BME280;28042;43.986;22.860;2023-03-15T10:49:14;99990.31;;;10.16;51.06
42385;BME280;28042;43.986;22.860;2023-03-15T10:51:45;99971.09;;;9.84;51.34
42385;BME280;28042;43.986;22.860;2023-03-15T10:57:03;99980.72;;;9.80;49.58
42385;BME280;28042;43.986;22.860;2023-03-15T10:59:34;100012.59;;;10.00;50.90
42385;BME280;28042;43.986;22.860;2023-03-15T11:05:02;100000.41;;;10.22;51.25
42385;BME280;28042;43.986;22.860;2023-03-15T11:07:33;99978.41;;;10.17;52.07
42385;BME280;28042;43.986;22.860;2023-03-15T11:10:01;99980.69;;;10.20;52.68
42385;BME280;28042;43.986;22.860;2023-03-15T11:12:28;99981.97;;;10.24;52.01
42385;BME280;28042;43.986;22.860;2023-03-15T11:15:06;99987.38;;;10.37;51.73
42385;BME280;28042;43.986;22.860;2023-03-15T11:17:41;99974.38;;;10.33;52.02
42385;BME280;28042;43.986;22.860;2023-03-15T11:20:36;99991.34;;;10.41;51.50
42385;BME280;28042;43.986;22.860;2023-03-15T11:23:27;99981.97;;;10.11;52.24
42385;BME280;28042;43.986;22.860;2023-03-15T11:25:54;99972.75;;;10.05;53.10
42385;BME280;28042;43.986;22.860;2023-03-15T11:28:25;99976.53;;;9.98;52.69
42385;BME280;28042;43.986;22.860;2023-03-15T11:30:51;99971.91;;;9.98;52.98
42385;BME280;28042;43.986;22.860;2023-03-15T11:36:01;99961.41;;;10.28;51.60
42385;BME280;28042;43.986;22.860;2023-03-15T11:38:31;99976.63;;;10.56;51.04
42385;BME280;28042;43.986;22.860;2023-03-15T11:40:59;99976.88;;;10.92;50.93
42385;BME280;28042;43.986;22.860;2023-03-15T11:43:32;99965.16;;;11.23;49.68
42385;BME280;28042;43.986;22.860;2023-03-15T11:46:03;99954.28;;;11.17;49.74
42385;BME280;28042;43.986;22.860;2023-03-15T11:48:46;99897.84;;;11.36;48.89
42385;BME280;28042;43.986;22.860;2023-03-15T11:51:13;99946.06;;;11.98;48.25
42385;BME280;28042;43.986;22.860;2023-03-15T11:56:26;99944.00;;;11.94;48.53
42385;BME280;28042;43.986;22.860;2023-03-15T11:59:07;99921.94;;;12.13;48.17
42385;BME280;28042;43.986;22.860;2023-03-15T12:01:35;99926.19;;;12.46;46.69
42385;BME280;28042;43.986;22.860;2023-03-15T12:06:49;99923.56;;;12.69;45.73
42385;BME280;28042;43.986;22.860;2023-03-15T12:12:01;99859.84;;;12.32;44.97
42385;BME280;28042;43.986;22.860;2023-03-15T12:14:34;99897.78;;;11.92;45.85
42385;BME280;28042;43.986;22.860;2023-03-15T12:20:03;99925.72;;;12.31;47.22
42385;BME280;28042;43.986;22.860;2023-03-15T12:22:34;99924.66;;;12.68;46.99
42385;BME280;28042;43.986;22.860;2023-03-15T12:25:30;99895.31;;;12.57;45.15
42385;BME280;28042;43.986;22.860;2023-03-15T12:27:59;99854.88;;;12.59;45.17
42385;BME280;28042;43.986;22.860;2023-03-15T12:30:32;99910.16;;;13.10;44.92
42385;BME280;28042;43.986;22.860;2023-03-15T12:32:59;99910.97;;;13.10;45.06
42385;BME280;28042;43.986;22.860;2023-03-15T12:35:39;99859.16;;;12.55;44.99
42385;BME280;28042;43.986;22.860;2023-03-15T12:38:13;99915.81;;;13.26;44.82
42385;BME280;28042;43.986;22.860;2023-03-15T12:40:50;99920.63;;;13.43;44.17
42385;BME280;28042;43.986;22.860;2023-03-15T12:43:33;99924.19;;;13.55;44.38
42385;BME280;28042;43.986;22.860;2023-03-15T12:45:59;99866.72;;;13.13;44.85
42385;BME280;28042;43.986;22.860;2023-03-15T12:48:26;99923.50;;;13.71;45.15
42385;BME280;28042;43.986;22.860;2023-03-15T12:50:55;99865.56;;;13.79;44.53
42385;BME280;28042;43.986;22.860;2023-03-15T12:55:53;99906.25;;;13.17;44.70
42385;BME280;28042;43.986;22.860;2023-03-15T12:58:26;99897.59;;;12.60;44.48
42385;BME280;28042;43.986;22.860;2023-03-15T13:00:54;99847.31;;;12.25;44.96
42385;BME280;28042;43.986;22.860;2023-03-15T13:03:21;99857.28;;;12.37;45.52
42385;BME280;28042;43.986;22.860;2023-03-15T13:06:20;99908.06;;;12.63;45.77
42385;BME280;28042;43.986;22.860;2023-03-15T13:09:15;99904.69;;;12.80;45.59
42385;BME280;28042;43.986;22.860;2023-03-15T13:12:23;99912.31;;;12.78;45.17
42385;BME280;28042;43.986;22.860;2023-03-15T13:17:49;99907.75;;;12.71;45.71
42385;BME280;28042;43.986;22.860;2023-03-15T13:23:11;99866.06;;;12.88;44.27
42385;BME280;28042;43.986;22.860;2023-03-15T13:26:00;99865.72;;;12.96;43.90
42385;BME280;28042;43.986;22.860;2023-03-15T13:28:49;99905.25;;;13.00;43.92
42385;BME280;28042;43.986;22.860;2023-03-15T13:33:54;99840.78;;;12.44;44.61
42385;BME280;28042;43.986;22.860;2023-03-15T13:36:45;99908.78;;;12.89;44.59
42385;BME280;28042;43.986;22.860;2023-03-15T13:39:24;99907.13;;;12.99;44.15
42385;BME280;28042;43.986;22.860;2023-03-15T13:42:02;99907.28;;;13.05;44.20
42385;BME280;28042;43.986;22.860;2023-03-15T13:44:29;99836.06;;;12.51;44.43